Impacts METAR Board INFO
IDs:

KDEN - Denver Intl, CO, US

Updated at: 2056 UTC 20 Jan 2018
Potential Impact None Slight Moderate High
Time20/08Z 20/09Z 20/10Z 20/11Z 20/12Z 20/13Z 20/14Z 20/15Z 20/16Z 20/17Z 20/18Z 20/19Z 20/20Z
VIS10 10 10 10 10 10 10 10 10 10 10 10 10
CIG-- -- -- -- 220 -- -- 220 220 220 220 220 220
CoverFEWFEWFEWFEWBKNSCTSCTBKNBKNBKNBKNBKNBKN
FltCatVFRVFRVFRVFRVFRVFRVFRVFRVFRVFRVFRVFRVFR
WX--------------------------
WDir22021023023025023027023026020305010
WSpd14 13 9 7 7 8 7 6 9 10 10 10 11
WGst-- -- -- -- -- -- -- -- -- -- -- -- --
Raw hourly METARs
KDEN 200753Z 22014KT 10SM FEW220 08/M09 A2973 RMK AO2 SLP020 T00831094
KDEN 200853Z 21013KT 10SM FEW220 06/M09 A2974 RMK AO2 SLP024 T00611089 55004
KDEN 200953Z 23009KT 10SM FEW220 07/M09 A2974 RMK AO2 SLP024 T00721089
KDEN 201053Z 23007KT 10SM FEW220 06/M09 A2973 RMK AO2 SLP025 T00561089
KDEN 201153Z 25007KT 10SM FEW140 BKN220 05/M09 A2974 RMK AO2 SLP038 T00501089 10089 20039 51001
KDEN 201253Z 23008KT 10SM FEW120 SCT220 06/M09 A2974 RMK AO2 SLP047 T00561089
KDEN 201353Z 27007KT 10SM FEW120 SCT220 05/M09 A2975 RMK AO2 SLP051 T00501089
KDEN 201453Z 23006KT 10SM FEW080 SCT120 BKN220 02/M08 A2976 RMK AO2 SLP065 T00171083 53004
KDEN 201553Z 26009KT 10SM FEW080 SCT120 BKN220 05/M08 A2976 RMK AO2 SLP054 T00501078
KDEN 201653Z 02010KT 10SM FEW080 SCT120 BKN220 06/M07 A2979 RMK AO2 SLP064 T00561067
KDEN 201753Z 03010KT 10SM FEW080 FEW140 BKN220 06/M06 A2978 RMK AO2 SLP059 T00561061 10078 20000 50006
KDEN 201853Z 05010KT 10SM FEW080 FEW140 BKN220 06/M06 A2976 RMK AO2 SLP058 T00561056
KDEN 201953Z 01011KT 10SM FEW080 FEW140 BKN220 07/M05 A2975 RMK AO2 SLP046 T00721050